Time;durP1;ratioP1;P1;durP2;ratioP2;P2;SDS_P1;SDS_P2;PMS_P1;PMS_P2;Temp;Humidity;BMP_temperature;BMP_pressure;BME280_temperature;BME280_humidity;BME280_pressure;Samples;Min_cycle;Max_cycle;Signal;HPM_P1;HPM_P2
2022/09/23 00:00:36;;;;;;;0.10;0.10;;;10.00;99.90;;;;;;5029612;28;20191;-78
2022/09/23 00:03:02;;;;;;;0.20;0.20;;;9.90;99.90;;;;;;5030310;28;20244;-78
2022/09/23 00:05:29;;;;;;;0.57;0.20;;;9.80;99.90;;;;;;5029551;28;20214;-78
2022/09/23 00:07:56;;;;;;;1.67;0.20;;;9.70;99.90;;;;;;5029717;28;20251;-78
2022/09/23 00:10:23;;;;;;;0.93;0.40;;;9.70;99.90;;;;;;5031656;28;20203;-78
2022/09/23 00:12:49;;;;;;;0.20;0.20;;;9.60;99.90;;;;;;5015558;28;20193;-78
2022/09/23 00:15:16;;;;;;;0.20;0.20;;;9.50;99.90;;;;;;5030521;28;20737;-78
2022/09/23 00:17:41;;;;;;;0.10;0.10;;;9.50;99.90;;;;;;5029690;28;20236;-79
2022/09/23 00:20:10;;;;;;;0.20;0.20;;;9.40;99.90;;;;;;5029826;28;20638;-78
2022/09/23 00:22:36;;;;;;;0.40;0.40;;;9.40;99.90;;;;;;5032041;28;20186;-78
2022/09/23 00:25:03;;;;;;;0.37;0.37;;;9.50;99.90;;;;;;5027928;28;20210;-78
2022/09/23 00:27:29;;;;;;;0.10;0.10;;;9.40;99.90;;;;;;5030851;28;20578;-78
2022/09/23 00:29:55;;;;;;;0.10;0.10;;;9.40;99.90;;;;;;5029290;28;20182;-79
2022/09/23 00:32:20;;;;;;;0.20;0.20;;;9.30;99.90;;;;;;5030054;28;20187;-79
2022/09/23 00:34:46;;;;;;;0.27;0.27;;;9.20;99.90;;;;;;5033469;28;20277;-78
2022/09/23 00:37:13;;;;;;;0.33;0.20;;;9.20;99.90;;;;;;5030528;28;20204;-78
2022/09/23 00:39:38;;;;;;;0.67;0.20;;;9.10;99.90;;;;;;5032827;28;20177;-79
2022/09/23 00:42:06;;;;;;;0.20;0.20;;;9.10;99.90;;;;;;5029707;28;20185;-78
2022/09/23 00:44:52;;;;;;;0.40;0.40;;;9.00;99.90;;;;;;5026992;28;20224;-78
2022/09/23 00:47:28;;;;;;;0.10;0.10;;;8.90;99.90;;;;;;5029031;28;20188;-78
2022/09/23 00:50:12;;;;;;;0.33;0.30;;;8.90;99.90;;;;;;5029700;28;20334;-78
2022/09/23 00:52:38;;;;;;;0.10;0.10;;;8.90;99.90;;;;;;5029804;28;20529;-78
2022/09/23 00:55:20;;;;;;;0.10;0.10;;;8.90;99.90;;;;;;5031283;28;20220;-78
2022/09/23 00:57:46;;;;;;;0.20;0.20;;;8.90;99.90;;;;;;5032626;28;20216;-78
2022/09/23 01:00:12;;;;;;;0.33;0.33;;;8.90;99.90;;;;;;5032889;28;20194;-78
2022/09/23 01:02:38;;;;;;;0.20;0.20;;;8.90;99.90;;;;;;5032220;28;20934;-78
2022/09/23 01:05:05;;;;;;;0.50;0.50;;;8.80;99.90;;;;;;5030397;28;20294;-78
2022/09/23 01:07:31;;;;;;;0.67;0.40;;;8.80;99.90;;;;;;5028950;28;20207;-78
2022/09/23 01:09:59;;;;;;;0.20;0.20;;;8.70;99.90;;;;;;5030407;28;20222;-78
2022/09/23 01:12:49;;;;;;;0.47;0.47;;;8.80;99.90;;;;;;5031799;28;20186;-79
2022/09/23 01:15:56;;;;;;;0.10;0.10;;;8.90;99.90;;;;;;5027632;28;20293;-78
2022/09/23 01:18:41;;;;;;;0.20;0.20;;;8.80;99.90;;;;;;5029211;28;20663;-78
2022/09/23 01:21:21;;;;;;;0.10;0.10;;;8.80;99.90;;;;;;5028624;28;20200;-78
2022/09/23 01:24:13;;;;;;;0.10;0.10;;;8.90;99.90;;;;;;5030583;28;20249;-78
2022/09/23 01:27:13;;;;;;;0.10;0.10;;;9.00;99.90;;;;;;5029684;28;20549;-78
2022/09/23 01:30:02;;;;;;;0.50;0.40;;;9.10;99.90;;;;;;5030466;28;20191;-78
2022/09/23 01:32:42;;;;;;;0.20;0.20;;;9.20;99.90;;;;;;5032480;28;20184;-79
2022/09/23 01:35:32;;;;;;;0.10;0.10;;;9.10;99.90;;;;;;5033418;28;20573;-78
2022/09/23 01:38:06;;;;;;;0.10;0.10;;;8.90;99.90;;;;;;5014615;28;20677;-78
2022/09/23 01:40:44;;;;;;;0.10;0.10;;;8.90;99.90;;;;;;5050024;28;20209;-78
2022/09/23 01:43:24;;;;;;;0.10;0.10;;;8.90;99.90;;;;;;5035257;28;20193;-78
2022/09/23 01:45:55;;;;;;;0.17;0.17;;;8.90;99.90;;;;;;5033796;28;20201;-78
2022/09/23 01:48:40;;;;;;;1.03;0.20;;;9.00;99.90;;;;;;5034049;28;20240;-79
2022/09/23 01:51:19;;;;;;;0.20;0.20;;;9.10;99.90;;;;;;5031291;28;20315;-78
2022/09/23 01:53:56;;;;;;;0.13;0.13;;;9.00;99.90;;;;;;5034470;28;20190;-78
2022/09/23 01:56:29;;;;;;;0.20;0.20;;;9.00;99.90;;;;;;5031251;28;20573;-78
2022/09/23 01:59:08;;;;;;;0.20;0.20;;;8.90;99.90;;;;;;5033973;28;20200;-78
2022/09/23 02:01:43;;;;;;;0.20;0.20;;;8.90;99.90;;;;;;5033120;28;20212;-79
2022/09/23 02:04:21;;;;;;;0.20;0.13;;;8.90;99.90;;;;;;5032906;28;20654;-78
2022/09/23 02:07:13;;;;;;;0.40;0.37;;;9.00;99.90;;;;;;5032577;28;20304;-78
2022/09/23 02:09:43;;;;;;;0.20;0.20;;;9.10;99.90;;;;;;5033192;28;20193;-79
2022/09/23 02:12:17;;;;;;;0.20;0.20;;;9.00;99.90;;;;;;5031676;28;20195;-78
2022/09/23 02:14:59;;;;;;;0.33;0.33;;;9.00;99.90;;;;;;5032650;28;20224;-78
2022/09/23 02:17:33;;;;;;;0.20;0.20;;;8.80;99.90;;;;;;5032855;28;21269;-78
2022/09/23 02:20:04;;;;;;;0.83;0.50;;;8.80;99.90;;;;;;5030719;28;20191;-78
2022/09/23 02:22:58;;;;;;;0.10;0.10;;;8.80;99.90;;;;;;5031867;28;20271;-79
2022/09/23 02:25:34;;;;;;;0.27;0.27;;;8.80;99.90;;;;;;5012989;28;21000;-78
2022/09/23 02:28:13;;;;;;;0.20;0.20;;;8.60;99.90;;;;;;5033088;28;20216;-78
2022/09/23 02:30:50;;;;;;;0.10;0.10;;;8.60;99.90;;;;;;5033482;28;20183;-78
2022/09/23 02:33:33;;;;;;;0.30;0.30;;;8.60;99.90;;;;;;5031795;28;20259;-78
2022/09/23 02:36:40;;;;;;;1.23;1.23;;;8.50;99.90;;;;;;5030264;28;20213;-78
2022/09/23 02:39:10;;;;;;;0.10;0.10;;;8.50;99.90;;;;;;4958187;28;20184;-78
2022/09/23 02:41:43;;;;;;;1.40;0.20;;;8.50;99.90;;;;;;5021513;28;21176;-78
2022/09/23 02:44:14;;;;;;;0.20;0.20;;;8.50;99.90;;;;;;5031516;28;20277;-79
2022/09/23 02:46:43;;;;;;;0.30;0.30;;;8.50;99.90;;;;;;5032532;28;20228;-79
2022/09/23 02:49:22;;;;;;;0.10;0.10;;;8.40;99.90;;;;;;5032205;28;20185;-79
2022/09/23 02:51:48;;;;;;;0.10;0.10;;;8.50;99.90;;;;;;5031917;28;20201;-79
2022/09/23 02:54:17;;;;;;;0.27;0.27;;;8.50;99.90;;;;;;5032901;28;21027;-79
2022/09/23 02:56:43;;;;;;;0.30;0.30;;;8.60;99.90;;;;;;5030455;28;20212;-78
2022/09/23 02:59:10;;;;;;;0.30;0.30;;;8.80;99.90;;;;;;5033279;28;20231;-78
2022/09/23 03:01:44;;;;;;;0.10;0.10;;;8.70;99.90;;;;;;5032626;28;20653;-79
2022/09/23 03:04:19;;;;;;;0.20;0.20;;;8.60;99.90;;;;;;5031352;28;20215;-79
2022/09/23 03:06:58;;;;;;;0.10;0.10;;;8.70;99.90;;;;;;5030659;28;20189;-79
2022/09/23 03:09:42;;;;;;;0.10;0.10;;;8.70;99.90;;;;;;5033064;28;20193;-79
2022/09/23 03:12:48;;;;;;;0.10;0.10;;;8.80;99.90;;;;;;5030954;28;20193;-79
2022/09/23 03:15:56;;;;;;;0.30;0.30;;;8.90;99.90;;;;;;5031369;28;20714;-78
2022/09/23 03:18:34;;;;;;;0.20;0.20;;;9.00;99.90;;;;;;5024365;28;20206;-79
2022/09/23 03:21:10;;;;;;;0.10;0.10;;;9.00;99.90;;;;;;5033259;28;20547;-78
2022/09/23 03:23:38;;;;;;;0.10;0.10;;;9.10;99.90;;;;;;5031706;28;20187;-79
2022/09/23 03:26:19;;;;;;;0.10;0.10;;;9.10;99.90;;;;;;5033583;28;20286;-78
2022/09/23 03:28:45;;;;;;;0.10;0.10;;;9.10;99.90;;;;;;5032850;28;20589;-79
2022/09/23 03:31:12;;;;;;;0.07;0.07;;;9.10;99.90;;;;;;5030515;28;20237;-79
2022/09/23 03:33:53;;;;;;;0.17;0.17;;;9.10;99.90;;;;;;5031682;28;20194;-79
2022/09/23 03:39:15;;;;;;;0.10;0.10;;;9.00;99.90;;;;;;5030253;28;20277;-79
2022/09/23 03:41:49;;;;;;;0.20;0.20;;;9.00;99.90;;;;;;5032868;28;20300;-79
2022/09/23 03:44:16;;;;;;;0.50;0.50;;;9.10;99.90;;;;;;5029402;28;20682;-79
2022/09/23 03:46:48;;;;;;;0.20;0.20;;;9.10;99.90;;;;;;5029874;28;20189;-79
2022/09/23 03:49:17;;;;;;;0.20;0.20;;;9.00;99.90;;;;;;5032769;28;20182;-79
2022/09/23 03:51:43;;;;;;;0.13;0.13;;;8.90;99.90;;;;;;5031692;28;20206;-79
2022/09/23 03:54:08;;;;;;;0.80;0.80;;;8.90;99.90;;;;;;5030377;28;20269;-79
2022/09/23 03:56:34;;;;;;;0.10;0.10;;;8.70;99.90;;;;;;5028752;28;20215;-81
2022/09/23 03:59:00;;;;;;;7.10;1.50;;;8.80;99.90;;;;;;5029384;28;20211;-81
2022/09/23 04:01:25;;;;;;;0.17;0.17;;;8.80;99.90;;;;;;5031823;28;20238;-81
2022/09/23 04:03:52;;;;;;;0.10;0.10;;;8.90;99.90;;;;;;5029262;28;20195;-81
2022/09/23 04:06:18;;;;;;;0.13;0.10;;;8.90;99.90;;;;;;5029090;28;20216;-81
2022/09/23 04:08:43;;;;;;;0.30;0.30;;;8.90;99.90;;;;;;5030507;28;20195;-79
2022/09/23 04:11:09;;;;;;;0.33;0.33;;;9.00;99.90;;;;;;5029523;28;20230;-79
2022/09/23 04:13:35;;;;;;;0.20;0.20;;;9.10;99.90;;;;;;5029303;28;20198;-79
2022/09/23 04:16:00;;;;;;;0.20;0.20;;;9.20;99.90;;;;;;5030721;28;20762;-79
2022/09/23 04:18:26;;;;;;;0.97;0.30;;;9.20;99.90;;;;;;5034007;28;20198;-79
2022/09/23 04:20:56;;;;;;;0.10;0.10;;;9.20;99.90;;;;;;5029017;28;20228;-79
2022/09/23 04:23:23;;;;;;;0.30;0.30;;;9.10;99.90;;;;;;5028942;28;20290;-78
2022/09/23 04:25:49;;;;;;;0.30;0.30;;;9.10;99.90;;;;;;5030019;28;20210;-79
2022/09/23 04:28:14;;;;;;;0.13;0.13;;;9.10;99.90;;;;;;5031076;28;20668;-79
2022/09/23 04:30:42;;;;;;;0.37;0.37;;;9.20;99.90;;;;;;5031977;28;20280;-78
2022/09/23 04:33:09;;;;;;;0.40;0.40;;;8.90;99.90;;;;;;5029203;28;20972;-79
2022/09/23 04:35:37;;;;;;;0.20;0.20;;;8.70;99.90;;;;;;5031684;28;20216;-79
2022/09/23 04:38:07;;;;;;;0.20;0.20;;;8.70;99.90;;;;;;5029531;28;20179;-79
2022/09/23 04:40:34;;;;;;;0.13;0.13;;;8.70;99.90;;;;;;5031412;28;20229;-79
2022/09/23 04:42:59;;;;;;;0.40;0.40;;;8.80;99.90;;;;;;5030669;28;20312;-79
2022/09/23 04:45:25;;;;;;;0.40;0.20;;;8.80;99.90;;;;;;5028669;28;20319;-78
2022/09/23 04:47:51;;;;;;;0.20;0.20;;;8.80;99.90;;;;;;5029492;28;20327;-79
2022/09/23 04:50:16;;;;;;;0.17;0.10;;;8.90;99.90;;;;;;5030432;28;20578;-79
2022/09/23 04:52:42;;;;;;;0.27;0.27;;;8.90;99.90;;;;;;5031577;28;20204;-79
2022/09/23 04:55:08;;;;;;;0.20;0.20;;;9.00;99.90;;;;;;5028435;28;20219;-79
2022/09/23 04:57:33;;;;;;;0.33;0.33;;;9.00;99.90;;;;;;5030223;28;20195;-78
2022/09/23 04:59:59;;;;;;;0.30;0.30;;;9.10;99.90;;;;;;5030023;28;20175;-78
2022/09/23 05:02:27;;;;;;;1.37;0.47;;;9.10;99.90;;;;;;5030402;28;20200;-79
2022/09/23 05:04:52;;;;;;;0.20;0.20;;;9.10;99.90;;;;;;5031004;28;20639;-78
2022/09/23 05:07:18;;;;;;;0.20;0.20;;;9.10;99.90;;;;;;5031643;28;20287;-78
2022/09/23 05:09:44;;;;;;;0.20;0.20;;;9.10;99.90;;;;;;5034120;28;20188;-79
2022/09/23 05:12:10;;;;;;;0.87;0.60;;;9.10;99.90;;;;;;5033953;28;20186;-79
2022/09/23 05:14:37;;;;;;;0.30;0.30;;;9.10;99.90;;;;;;5031869;28;20212;-80
2022/09/23 05:17:03;;;;;;;0.43;0.40;;;9.10;99.90;;;;;;5031309;28;20233;-79
2022/09/23 05:19:29;;;;;;;0.97;0.73;;;9.00;99.90;;;;;;5036752;28;20189;-79
2022/09/23 05:21:54;;;;;;;0.10;0.10;;;9.00;99.90;;;;;;5033209;28;20187;-79
2022/09/23 05:24:20;;;;;;;0.30;0.30;;;9.10;99.90;;;;;;5029995;28;20224;-79
2022/09/23 05:26:46;;;;;;;0.10;0.10;;;9.10;99.90;;;;;;5034514;28;20585;-80
2022/09/23 05:29:11;;;;;;;0.60;0.60;;;9.10;99.90;;;;;;5031129;28;20429;-79
2022/09/23 05:31:37;;;;;;;0.73;0.47;;;9.20;99.90;;;;;;5035230;28;20217;-80
2022/09/23 05:34:04;;;;;;;0.53;0.53;;;9.30;99.90;;;;;;5033378;28;20182;-79
2022/09/23 05:36:33;;;;;;;0.70;0.30;;;9.40;99.90;;;;;;5031065;28;20228;-80
2022/09/23 05:38:58;;;;;;;0.10;0.10;;;9.50;99.90;;;;;;5033620;28;20174;-80
2022/09/23 05:41:25;;;;;;;0.43;0.30;;;9.50;99.90;;;;;;5033131;28;20224;-79
2022/09/23 05:43:52;;;;;;;0.37;0.37;;;9.50;99.90;;;;;;5030602;28;20308;-79
2022/09/23 05:46:20;;;;;;;0.20;0.20;;;9.50;99.90;;;;;;5028603;28;20203;-79
2022/09/23 05:48:46;;;;;;;0.27;0.27;;;9.70;99.90;;;;;;5029274;28;20216;-79
2022/09/23 05:51:18;;;;;;;0.10;0.10;;;9.70;99.90;;;;;;5027834;28;20208;-79
2022/09/23 05:53:45;;;;;;;0.20;0.20;;;9.70;99.90;;;;;;5032930;28;20188;-79
2022/09/23 05:56:11;;;;;;;0.23;0.20;;;9.70;99.90;;;;;;5032132;28;20210;-79
2022/09/23 05:58:37;;;;;;;0.27;0.27;;;9.80;99.90;;;;;;5033164;28;20194;-79
2022/09/23 06:01:16;;;;;;;0.17;0.17;;;9.80;99.90;;;;;;5031429;28;20181;-79
2022/09/23 06:03:46;;;;;;;0.27;0.27;;;9.80;99.90;;;;;;5029774;28;20189;-79
2022/09/23 06:06:13;;;;;;;0.10;0.10;;;9.90;99.90;;;;;;5031558;28;20211;-79
2022/09/23 06:08:39;;;;;;;0.30;0.30;;;10.00;99.90;;;;;;5034366;28;20207;-79
2022/09/23 06:11:06;;;;;;;0.33;0.30;;;10.00;99.90;;;;;;5030595;28;20256;-79
2022/09/23 06:13:34;;;;;;;0.10;0.10;;;10.10;99.90;;;;;;5032588;28;21146;-79
2022/09/23 06:16:13;;;;;;;0.40;0.40;;;10.10;99.90;;;;;;5033817;28;20224;-79
2022/09/23 06:18:44;;;;;;;0.67;0.67;;;10.20;99.90;;;;;;5030820;28;20194;-79
2022/09/23 06:21:14;;;;;;;0.30;0.30;;;10.20;99.90;;;;;;5032286;28;20188;-79
2022/09/23 06:23:40;;;;;;;0.30;0.23;;;10.30;99.90;;;;;;5033282;28;20186;-80
2022/09/23 06:26:08;;;;;;;0.10;0.10;;;10.30;99.90;;;;;;5031383;28;20234;-79
2022/09/23 06:28:37;;;;;;;0.67;0.30;;;10.30;99.90;;;;;;5030238;28;20242;-79
2022/09/23 06:31:07;;;;;;;0.63;0.63;;;10.20;99.90;;;;;;5030549;28;21222;-79
2022/09/23 06:33:33;;;;;;;0.30;0.30;;;10.20;99.90;;;;;;5030687;28;20190;-79
2022/09/23 06:36:00;;;;;;;1.50;0.90;;;10.10;99.90;;;;;;5032005;28;20226;-79
2022/09/23 06:38:27;;;;;;;0.43;0.43;;;10.30;99.90;;;;;;5032958;28;20754;-79
2022/09/23 06:40:55;;;;;;;0.20;0.20;;;10.40;99.90;;;;;;5031246;28;20239;-79
2022/09/23 06:43:21;;;;;;;0.47;0.40;;;10.50;99.90;;;;;;5031489;28;20186;-79
2022/09/23 06:45:52;;;;;;;0.30;0.30;;;10.60;99.90;;;;;;5032711;28;20210;-79
2022/09/23 06:48:18;;;;;;;0.60;0.40;;;10.70;99.90;;;;;;5029611;28;20550;-79
2022/09/23 06:50:43;;;;;;;1.13;0.60;;;10.70;99.90;;;;;;5033531;28;20197;-79
2022/09/23 06:53:09;;;;;;;0.20;0.20;;;10.80;99.90;;;;;;5031075;28;20180;-79
2022/09/23 06:55:34;;;;;;;8.70;0.63;;;10.80;99.90;;;;;;5029488;28;20250;-79
2022/09/23 06:58:00;;;;;;;0.40;0.40;;;10.80;99.90;;;;;;5030968;28;20187;-79
2022/09/23 07:00:25;;;;;;;0.40;0.40;;;10.90;99.90;;;;;;5028296;28;20191;-79
2022/09/23 07:02:53;;;;;;;0.27;0.27;;;10.90;99.90;;;;;;5029906;28;20687;-79
2022/09/23 07:05:21;;;;;;;0.40;0.40;;;10.90;99.90;;;;;;5028563;28;20198;-79
2022/09/23 07:07:46;;;;;;;0.73;0.30;;;11.00;99.90;;;;;;5030122;28;20178;-79
2022/09/23 07:10:12;;;;;;;0.23;0.23;;;11.10;99.90;;;;;;5031408;28;20231;-79
2022/09/23 07:12:38;;;;;;;0.20;0.20;;;11.10;99.90;;;;;;5029028;28;20273;-78
2022/09/23 07:15:04;;;;;;;0.40;0.37;;;11.20;99.90;;;;;;5032841;28;20215;-79
2022/09/23 07:17:29;;;;;;;0.50;0.17;;;11.20;99.90;;;;;;5026577;28;21145;-79
2022/09/23 07:19:56;;;;;;;0.30;0.30;;;11.30;99.90;;;;;;5032543;28;20208;-79
2022/09/23 07:22:23;;;;;;;0.30;0.30;;;11.40;99.90;;;;;;5029610;28;20179;-79
2022/09/23 07:24:49;;;;;;;0.70;0.50;;;11.60;99.90;;;;;;5032597;28;20206;-79
2022/09/23 07:27:18;;;;;;;0.30;0.30;;;11.70;99.90;;;;;;5031128;28;20198;-79
2022/09/23 07:29:44;;;;;;;0.33;0.33;;;11.90;99.90;;;;;;5030144;28;20269;-79
2022/09/23 07:32:10;;;;;;;0.23;0.23;;;12.00;99.90;;;;;;5030490;28;20399;-80
2022/09/23 07:34:36;;;;;;;0.80;0.80;;;12.00;99.90;;;;;;5030408;28;20209;-79
2022/09/23 07:37:01;;;;;;;4.07;0.30;;;12.10;99.90;;;;;;5030738;28;20235;-80
2022/09/23 07:39:27;;;;;;;0.67;0.67;;;12.20;99.90;;;;;;5031135;28;20178;-79
2022/09/23 07:41:53;;;;;;;0.33;0.33;;;12.30;99.90;;;;;;5030744;28;20194;-80
2022/09/23 07:44:20;;;;;;;0.30;0.30;;;12.40;99.90;;;;;;5030595;28;20182;-80
2022/09/23 07:46:48;;;;;;;0.43;0.43;;;12.70;99.90;;;;;;5031174;28;20192;-80
2022/09/23 07:49:14;;;;;;;0.27;0.27;;;12.90;99.90;;;;;;5028999;28;20282;-80
2022/09/23 07:51:45;;;;;;;0.57;0.47;;;13.10;99.90;;;;;;5028809;28;20202;-80
2022/09/23 07:54:12;;;;;;;0.10;0.10;;;13.10;99.90;;;;;;5031343;28;20212;-80
2022/09/23 07:56:39;;;;;;;0.33;0.33;;;13.40;99.90;;;;;;5030645;28;20232;-81
2022/09/23 07:59:07;;;;;;;0.43;0.43;;;13.60;99.90;;;;;;5030239;28;20178;-79
2022/09/23 08:01:36;;;;;;;0.43;0.43;;;13.70;99.90;;;;;;5030921;28;20181;-80
2022/09/23 08:04:22;;;;;;;0.30;0.30;;;13.70;99.90;;;;;;5030665;28;20553;-79
2022/09/23 08:06:50;;;;;;;0.30;0.30;;;13.80;99.90;;;;;;5027885;28;20204;-79
2022/09/23 08:09:18;;;;;;;2.03;0.57;;;13.90;99.90;;;;;;5030865;28;20185;-79
2022/09/23 08:11:44;;;;;;;0.60;0.57;;;14.00;99.90;;;;;;5032996;28;20182;-79
2022/09/23 08:14:12;;;;;;;1.10;0.90;;;14.10;99.90;;;;;;5031517;28;20193;-81
2022/09/23 08:16:38;;;;;;;0.50;0.50;;;14.20;99.90;;;;;;5029706;28;20214;-79
2022/09/23 08:19:04;;;;;;;2.93;0.90;;;14.40;99.90;;;;;;5030945;28;20198;-79
2022/09/23 08:21:30;;;;;;;0.73;0.67;;;14.50;99.90;;;;;;5031421;28;20216;-79
2022/09/23 08:23:56;;;;;;;0.17;0.13;;;14.70;99.90;;;;;;5030630;28;20217;-79
2022/09/23 08:26:21;;;;;;;0.30;0.30;;;14.80;99.90;;;;;;5028710;28;20210;-79
2022/09/23 08:28:47;;;;;;;0.60;0.60;;;14.90;99.90;;;;;;5028844;28;20215;-79
2022/09/23 08:31:13;;;;;;;0.73;0.50;;;15.00;99.90;;;;;;5031569;28;20194;-79
2022/09/23 08:33:39;;;;;;;1.77;0.60;;;15.20;99.90;;;;;;5044044;28;20192;-79
2022/09/23 08:36:06;;;;;;;1.07;0.70;;;15.40;99.90;;;;;;5029481;28;20684;-79
2022/09/23 08:38:32;;;;;;;0.33;0.33;;;15.60;99.90;;;;;;5033045;28;20358;-79
2022/09/23 08:41:06;;;;;;;0.57;0.57;;;15.60;99.90;;;;;;5031727;28;20313;-79
2022/09/23 08:43:34;;;;;;;0.40;0.40;;;15.80;99.90;;;;;;5032527;28;20182;-79
2022/09/23 08:46:04;;;;;;;1.10;1.00;;;16.00;99.90;;;;;;5026800;28;20217;-79
2022/09/23 08:48:50;;;;;;;0.40;0.27;;;16.20;99.90;;;;;;5030506;28;20211;-80
2022/09/23 08:51:34;;;;;;;0.30;0.30;;;16.30;99.90;;;;;;5028929;28;20220;-81
2022/09/23 08:54:00;;;;;;;0.33;0.33;;;16.50;99.90;;;;;;5029857;28;20207;-80
2022/09/23 08:56:28;;;;;;;0.93;0.70;;;16.40;99.90;;;;;;5032569;28;20238;-79
2022/09/23 08:59:13;;;;;;;1.37;0.73;;;16.50;99.90;;;;;;5032735;28;20207;-80
2022/09/23 09:02:16;;;;;;;0.40;0.40;;;16.70;99.90;;;;;;5030798;28;20176;-79
2022/09/23 09:04:45;;;;;;;1.30;0.57;;;16.80;99.90;;;;;;5029005;28;20214;-79
2022/09/23 09:07:19;;;;;;;0.30;0.30;;;16.90;99.90;;;;;;5025746;28;20196;-80
2022/09/23 09:09:56;;;;;;;0.33;0.33;;;16.90;99.90;;;;;;5028641;28;20280;-79
2022/09/23 09:12:29;;;;;;;0.67;0.50;;;16.80;99.90;;;;;;5028311;28;20670;-80
2022/09/23 09:15:18;;;;;;;0.67;0.57;;;16.90;99.90;;;;;;5028553;28;20207;-79
2022/09/23 09:17:47;;;;;;;0.50;0.50;;;17.00;99.90;;;;;;5028907;28;20231;-80
2022/09/23 09:20:55;;;;;;;0.73;0.50;;;17.10;99.90;;;;;;5030008;28;20216;-79
2022/09/23 09:23:30;;;;;;;0.20;0.20;;;17.20;99.90;;;;;;5030671;28;20279;-79
2022/09/23 09:26:01;;;;;;;1.40;0.60;;;16.90;99.90;;;;;;5028819;28;20536;-80
2022/09/23 09:28:53;;;;;;;1.03;0.63;;;16.80;99.90;;;;;;5029106;28;20387;-80
2022/09/23 09:31:32;;;;;;;4.10;0.80;;;16.80;99.90;;;;;;5029123;28;20295;-80
2022/09/23 09:34:05;;;;;;;0.63;0.47;;;16.60;99.90;;;;;;5028865;28;21165;-80
2022/09/23 09:36:48;;;;;;;0.20;0.20;;;16.80;99.90;;;;;;5027601;28;20217;-79
2022/09/23 09:39:15;;;;;;;0.63;0.63;;;17.30;99.90;;;;;;5030006;28;20916;-81
2022/09/23 09:41:49;;;;;;;0.53;0.53;;;17.50;99.90;;;;;;5029537;28;20193;-80
2022/09/23 09:44:30;;;;;;;1.10;1.00;;;17.60;99.90;;;;;;5028383;28;20190;-80
2022/09/23 09:47:27;;;;;;;0.70;0.70;;;17.40;99.90;;;;;;5029282;28;20682;-80
2022/09/23 09:50:08;;;;;;;1.80;1.67;;;16.90;99.90;;;;;;5029270;28;20204;-80
2022/09/23 09:52:34;;;;;;;0.50;0.50;;;15.80;99.90;;;;;;5029329;28;20193;-79
2022/09/23 09:55:24;;;;;;;0.80;0.80;;;16.40;99.90;;;;;;5032348;28;20437;-80
2022/09/23 09:58:03;;;;;;;0.47;0.47;;;16.70;99.90;;;;;;5026993;28;20201;-79
2022/09/23 10:00:29;;;;;;;0.70;0.63;;;17.00;99.90;;;;;;5032722;28;20720;-80
2022/09/23 10:03:14;;;;;;;0.80;0.63;;;17.50;99.90;;;;;;5030124;28;20221;-80
2022/09/23 10:05:47;;;;;;;0.47;0.40;;;17.20;99.90;;;;;;5033558;28;20221;-80
2022/09/23 10:08:34;;;;;;;0.40;0.40;;;17.70;99.90;;;;;;5032028;28;20276;-80
2022/09/23 10:11:00;;;;;;;1.63;0.80;;;18.00;99.90;;;;;;5034245;28;20201;-80
2022/09/23 10:13:28;;;;;;;1.83;0.77;;;17.70;99.90;;;;;;5031793;28;21054;-80
2022/09/23 10:15:55;;;;;;;0.30;0.20;;;17.50;99.90;;;;;;5033111;28;20237;-79
2022/09/23 10:18:34;;;;;;;0.77;0.77;;;18.00;99.90;;;;;;5033878;28;20178;-80
2022/09/23 10:21:09;;;;;;;0.50;0.50;;;18.30;99.90;;;;;;5032045;28;20181;-80
2022/09/23 10:23:43;;;;;;;0.83;0.83;;;18.40;99.90;;;;;;5032866;28;20177;-81
2022/09/23 10:26:11;;;;;;;0.50;0.50;;;18.10;99.90;;;;;;5029960;28;20205;-81
2022/09/23 10:28:40;;;;;;;1.70;0.53;;;18.60;99.90;;;;;;5032732;28;20197;-79
2022/09/23 10:31:11;;;;;;;0.50;0.50;;;18.60;99.90;;;;;;5032128;28;20201;-79
2022/09/23 10:33:46;;;;;;;0.70;0.70;;;18.80;99.90;;;;;;5033838;28;20193;-79
2022/09/23 10:36:17;;;;;;;0.30;0.30;;;18.90;99.90;;;;;;5030167;28;20212;-80
2022/09/23 10:38:43;;;;;;;1.60;1.33;;;19.00;99.90;;;;;;5033582;28;20182;-82
2022/09/23 10:47:19;;;;;;;0.63;0.63;;;19.00;99.90;;;;;;5032366;28;20273;-82
2022/09/23 10:50:13;;;;;;;1.07;0.50;;;18.30;99.90;;;;;;5031845;28;20190;-82
2022/09/23 10:53:17;;;;;;;0.30;0.30;;;18.20;99.90;;;;;;5034337;28;20197;-82
2022/09/23 10:56:10;;;;;;;0.57;0.57;;;18.20;99.90;;;;;;4994058;28;20215;-81
2022/09/23 10:59:04;;;;;;;1.07;0.70;;;18.60;99.90;;;;;;5033912;28;20186;-82
2022/09/23 11:01:41;;;;;;;0.50;0.50;;;18.50;99.90;;;;;;5031248;28;20240;-83
2022/09/23 11:04:19;;;;;;;0.70;0.70;;;18.90;99.90;;;;;;5031798;28;20187;-83
2022/09/23 11:06:51;;;;;;;0.50;0.50;;;19.10;99.90;;;;;;5030658;28;20183;-83
2022/09/23 11:09:55;;;;;;;0.50;0.50;;;19.30;99.90;;;;;;5032391;28;20240;-83
2022/09/23 11:12:47;;;;;;;0.87;0.53;;;19.60;99.90;;;;;;5036742;28;20189;-82
2022/09/23 11:15:36;;;;;;;2.10;0.90;;;19.70;99.90;;;;;;5034631;28;20696;-83
2022/09/23 11:18:24;;;;;;;0.60;0.53;;;18.70;99.90;;;;;;5033509;28;20187;-83
2022/09/23 11:21:40;;;;;;;0.50;0.50;;;18.50;99.90;;;;;;5038251;28;20190;-82
2022/09/23 11:24:26;;;;;;;1.30;0.93;;;19.40;99.90;;;;;;5034468;28;20186;-82
2022/09/23 11:27:19;;;;;;;0.30;0.30;;;20.10;99.90;;;;;;5035218;28;20263;-82
2022/09/23 11:30:01;;;;;;;0.77;0.70;;;20.50;99.90;;;;;;5032783;28;20264;-82
2022/09/23 11:32:49;;;;;;;0.90;0.90;;;20.40;99.90;;;;;;5030888;28;20213;-82
2022/09/23 11:35:36;;;;;;;1.17;1.03;;;20.40;99.90;;;;;;5033093;28;20223;-82
2022/09/23 11:38:20;;;;;;;0.50;0.50;;;20.40;99.90;;;;;;5031627;28;20229;-82
2022/09/23 11:40:53;;;;;;;0.57;0.57;;;20.40;99.90;;;;;;5028828;28;21347;-82
2022/09/23 11:43:32;;;;;;;0.30;0.30;;;20.60;99.90;;;;;;5031881;28;20218;-81
2022/09/23 11:46:18;;;;;;;0.43;0.43;;;20.70;99.90;;;;;;5031851;28;20216;-80
2022/09/23 11:48:52;;;;;;;0.63;0.63;;;20.80;99.90;;;;;;5033770;28;20192;-81
2022/09/23 11:51:28;;;;;;;1.03;0.77;;;20.90;99.90;;;;;;5033527;28;21099;-81
2022/09/23 11:54:01;;;;;;;1.90;0.97;;;21.00;99.90;;;;;;5034340;28;20196;-80
2022/09/23 11:56:32;;;;;;;0.67;0.47;;;20.60;99.90;;;;;;5031615;28;20210;-81
2022/09/23 11:59:17;;;;;;;0.80;0.80;;;20.60;99.90;;;;;;5033179;28;20263;-81
2022/09/23 12:02:00;;;;;;;0.57;0.57;;;20.90;99.90;;;;;;5034806;28;20723;-81
2022/09/23 12:04:42;;;;;;;0.83;0.77;;;20.90;99.90;;;;;;5032069;28;20178;-81
2022/09/23 12:07:13;;;;;;;0.60;0.60;;;20.80;99.90;;;;;;5032148;28;20204;-81
2022/09/23 12:10:00;;;;;;;0.40;0.40;;;20.90;99.90;;;;;;5033423;28;20235;-81
2022/09/23 12:12:34;;;;;;;0.60;0.60;;;20.90;99.90;;;;;;5033836;28;20539;-81
2022/09/23 12:15:13;;;;;;;0.40;0.40;;;21.10;99.90;;;;;;5030693;28;20204;-80
2022/09/23 12:17:55;;;;;;;0.50;0.50;;;21.20;99.90;;;;;;5029163;28;20198;-80
2022/09/23 12:20:58;;;;;;;2.53;0.90;;;20.70;99.90;;;;;;5033340;28;20177;-80
2022/09/23 12:23:55;;;;;;;0.40;0.40;;;20.50;99.90;;;;;;5030379;28;20193;-80
2022/09/23 12:26:24;;;;;;;1.40;0.60;;;20.80;99.90;;;;;;5028752;28;20217;-81
2022/09/23 12:28:53;;;;;;;0.70;0.70;;;21.30;99.90;;;;;;5033329;28;20185;-81
2022/09/23 12:31:29;;;;;;;1.17;0.93;;;21.50;99.90;;;;;;5031844;28;20186;-81
2022/09/23 12:33:57;;;;;;;0.60;0.60;;;21.60;99.90;;;;;;5032832;28;20190;-81
2022/09/23 12:36:30;;;;;;;0.87;0.80;;;21.40;99.90;;;;;;5030317;28;20232;-81
2022/09/23 12:39:05;;;;;;;0.30;0.30;;;21.50;99.90;;;;;;5027798;28;20209;-81
2022/09/23 12:41:38;;;;;;;0.50;0.50;;;21.80;99.90;;;;;;5032171;28;20268;-81
2022/09/23 12:44:07;;;;;;;0.30;0.30;;;21.70;99.90;;;;;;5028512;28;20324;-81
2022/09/23 12:46:32;;;;;;;0.80;0.80;;;21.70;99.90;;;;;;5030112;28;20206;-81
2022/09/23 12:49:01;;;;;;;1.43;0.60;;;21.40;99.90;;;;;;5030311;28;20200;-80
2022/09/23 12:51:33;;;;;;;0.73;0.73;;;21.40;99.90;;;;;;5031441;28;20255;-80
2022/09/23 12:54:05;;;;;;;1.10;0.53;;;21.50;99.90;;;;;;5029033;28;20269;-80
2022/09/23 12:56:37;;;;;;;0.70;0.67;;;21.40;99.90;;;;;;5032081;28;20241;-81
2022/09/23 12:59:15;;;;;;;0.47;0.30;;;21.20;99.90;;;;;;5033667;28;20186;-81
2022/09/23 13:01:41;;;;;;;0.27;0.27;;;21.20;99.90;;;;;;5033530;28;20177;-81
2022/09/23 13:07:31;;;;;;;0.27;0.27;;;20.90;99.90;;;;;;5031259;28;20571;-80
2022/09/23 13:10:07;;;;;;;0.87;0.27;;;21.20;99.90;;;;;;5028995;28;20190;-80
2022/09/23 13:12:37;;;;;;;0.60;0.60;;;21.30;99.90;;;;;;5031873;28;20718;-81
2022/09/23 13:15:11;;;;;;;1.63;1.30;;;21.50;99.90;;;;;;5028933;28;20217;-81
2022/09/23 13:17:38;;;;;;;0.80;0.80;;;21.70;99.90;;;;;;5030646;28;20292;-81
2022/09/23 13:20:37;;;;;;;0.87;0.50;;;21.80;99.90;;;;;;5029408;28;20178;-81
2022/09/23 13:23:15;;;;;;;0.87;0.57;;;21.60;99.90;;;;;;5009111;28;20218;-81
2022/09/23 13:25:42;;;;;;;1.00;0.60;;;21.50;99.90;;;;;;5031067;28;20230;-80
2022/09/23 13:28:23;;;;;;;0.53;0.53;;;21.30;99.90;;;;;;5029916;28;20186;-81
2022/09/23 13:30:52;;;;;;;0.30;0.30;;;21.10;99.90;;;;;;5035696;28;20231;-81
2022/09/23 13:33:33;;;;;;;0.40;0.40;;;20.90;99.90;;;;;;5034499;28;20198;-80